Check out our new BloomSky Weather System.

Active alerts

Houston, TX
  Details for Houston, TX Dense Fog Advisory


Thunder radar  blitzortung!


Rain radar more information rain snow radar


Visit our other weather sites:

Template documentation
and downloads

And another site



Weather Underground History page Text

Daily Summary for May 19, 2017 Units:  English    Metric   Both
« Previous Day
Next Day »
Daily Weekly Monthly Yearly Custom
  High: Low: Average:
Temperature: 90.7 °F 77.9 °F 82.5 °F
Dew Point: 76.3 °F 73.8 °F 74.9 °F
Humidity: 88 % 59 % 78 %
Wind Speed: 19.0 mph 1.0 mph 6.5 mph
Wind Gust: 22.0 mph - -
Wind:- - SE
Pressure: 29.83 in 29.76 in -
Precipitation: 0.00 in    
Historical Graphs
 
 
Tabular Data for May 19, 2017
Time Temperature Dew Point Pressure Wind Wind Speed Wind Gust Humidity Rainfall Rate (Hourly)
00:03 79.5 °F 73.9 °F 29.83 in SE 4.0 mph 12.0 mph 83 % 0.00 in
00:08 79.5 °F 73.9 °F 29.83 in SE 4.0 mph 10.0 mph 83 % 0.00 in
00:13 79.5 °F 73.9 °F 29.83 in SE 3.0 mph 7.0 mph 83 % 0.00 in
00:18 79.5 °F 73.9 °F 29.83 in SE 3.0 mph 8.0 mph 83 % 0.00 in
00:23 79.5 °F 73.9 °F 29.83 in SSE 3.0 mph 8.0 mph 83 % 0.00 in
00:28 79.5 °F 73.9 °F 29.82 in SE 5.0 mph 8.0 mph 83 % 0.00 in
00:33 79.5 °F 73.9 °F 29.82 in ESE 3.0 mph 10.0 mph 83 % 0.00 in
00:38 79.5 °F 73.9 °F 29.82 in SSE 4.0 mph 10.0 mph 83 % 0.00 in
00:43 79.3 °F 73.8 °F 29.82 in SE 8.0 mph 10.0 mph 83 % 0.00 in
00:48 79.3 °F 73.8 °F 29.82 in SE 4.0 mph 10.0 mph 83 % 0.00 in
00:53 79.3 °F 73.8 °F 29.82 in SE 2.0 mph 8.0 mph 83 % 0.00 in
00:58 79.3 °F 73.8 °F 29.82 in SSE 3.0 mph 8.0 mph 83 % 0.00 in
01:03 79.3 °F 73.8 °F 29.82 in SE 3.0 mph 8.0 mph 83 % 0.00 in
01:08 79.3 °F 73.8 °F 29.82 in SSE 11.0 mph 11.0 mph 83 % 0.00 in
01:13 79.3 °F 73.8 °F 29.82 in ESE 6.0 mph 11.0 mph 83 % 0.00 in
01:18 79.3 °F 73.8 °F 29.82 in ESE 4.0 mph 11.0 mph 83 % 0.00 in
01:23 79.2 °F 73.9 °F 29.81 in SE 4.0 mph 11.0 mph 84 % 0.00 in
01:28 79.2 °F 73.9 °F 29.81 in ESE 7.0 mph 8.0 mph 84 % 0.00 in
01:33 79.2 °F 73.9 °F 29.81 in SE 3.0 mph 12.0 mph 84 % 0.00 in
01:38 79.3 °F 74.1 °F 29.81 in SSE 6.0 mph 12.0 mph 84 % 0.00 in
01:43 79.2 °F 73.9 °F 29.81 in ESE 5.0 mph 12.0 mph 84 % 0.00 in
01:48 79.2 °F 73.9 °F 29.82 in ESE 5.0 mph 9.0 mph 84 % 0.00 in
01:53 79.2 °F 73.9 °F 29.81 in ESE 9.0 mph 10.0 mph 84 % 0.00 in
01:58 79.3 °F 74.1 °F 29.81 in SE 5.0 mph 11.0 mph 84 % 0.00 in
01:59 79.2 °F 73.9 °F 29.81 in ENE 4.0 mph 11.0 mph 84 % 0.00 in
02:04 79.2 °F 73.9 °F 29.81 in SSE 6.0 mph 11.0 mph 84 % 0.00 in
02:09 79.2 °F 73.9 °F 29.81 in South 6.0 mph 11.0 mph 84 % 0.00 in
02:14 79.2 °F 74.3 °F 29.81 in SE 3.0 mph 9.0 mph 85 % 0.00 in
02:19 79.2 °F 74.3 °F 29.81 in ESE 13.0 mph 13.0 mph 85 % 0.00 in
02:24 79.2 °F 74.3 °F 29.81 in South 3.0 mph 13.0 mph 85 % 0.00 in
02:29 79.2 °F 74.3 °F 29.81 in SSW 4.0 mph 13.0 mph 85 % 0.00 in
02:34 79.0 °F 74.1 °F 29.81 in SSE 5.0 mph 13.0 mph 85 % 0.00 in
02:39 79.0 °F 74.1 °F 29.81 in SSE 4.0 mph 10.0 mph 85 % 0.00 in
02:44 79.0 °F 74.1 °F 29.80 in ESE 5.0 mph 8.0 mph 85 % 0.00 in
02:49 78.8 °F 74.3 °F 29.80 in SE 6.0 mph 9.0 mph 86 % 0.00 in
02:52 78.8 °F 74.3 °F 29.80 in ESE 5.0 mph 9.0 mph 86 % 0.00 in
02:57 78.8 °F 74.3 °F 29.81 in SW 3.0 mph 9.0 mph 86 % 0.00 in
03:02 78.8 °F 74.3 °F 29.81 in SSE 2.0 mph 8.0 mph 86 % 0.00 in
03:07 78.6 °F 74.1 °F 29.81 in SSE 5.0 mph 8.0 mph 86 % 0.00 in
03:12 78.6 °F 74.1 °F 29.81 in ESE 3.0 mph 8.0 mph 86 % 0.00 in
03:17 78.4 °F 73.9 °F 29.81 in ESE 3.0 mph 7.0 mph 86 % 0.00 in
03:22 78.4 °F 74.3 °F 29.81 in SE 4.0 mph 7.0 mph 87 % 0.00 in
03:27 78.3 °F 74.1 °F 29.81 in SE 4.0 mph 7.0 mph 87 % 0.00 in
03:32 78.3 °F 74.1 °F 29.81 in ESE 7.0 mph 7.0 mph 87 % 0.00 in
03:37 78.3 °F 74.1 °F 29.81 in South 3.0 mph 8.0 mph 87 % 0.00 in
03:42 78.3 °F 74.1 °F 29.81 in SE 4.0 mph 8.0 mph 87 % 0.00 in
03:47 78.4 °F 74.3 °F 29.81 in East 5.0 mph 9.0 mph 87 % 0.00 in
03:52 78.4 °F 74.3 °F 29.81 in SE 4.0 mph 9.0 mph 87 % 0.00 in
03:57 78.4 °F 74.3 °F 29.81 in ESE 7.0 mph 9.0 mph 87 % 0.00 in
04:03 78.4 °F 74.3 °F 29.81 in East 4.0 mph 9.0 mph 87 % 0.00 in
04:08 78.6 °F 74.5 °F 29.81 in SE 4.0 mph 9.0 mph 87 % 0.00 in
04:13 78.6 °F 74.5 °F 29.81 in ESE 6.0 mph 8.0 mph 87 % 0.00 in
04:18 78.6 °F 74.5 °F 29.81 in East 6.0 mph 10.0 mph 87 % 0.00 in
04:23 78.6 °F 74.5 °F 29.81 in East 3.0 mph 10.0 mph 87 % 0.00 in
04:28 78.6 °F 74.5 °F 29.81 in ESE 3.0 mph 10.0 mph 87 % 0.00 in
04:33 78.6 °F 74.5 °F 29.81 in SE 2.0 mph 8.0 mph 87 % 0.00 in
04:38 78.6 °F 74.5 °F 29.81 in SSE 2.0 mph 11.0 mph 87 % 0.00 in
04:43 78.4 °F 74.3 °F 29.81 in SE 3.0 mph 11.0 mph 87 % 0.00 in
04:48 78.4 °F 74.3 °F 29.81 in SE 3.0 mph 11.0 mph 87 % 0.00 in
04:53 78.6 °F 74.5 °F 29.81 in South 4.0 mph 10.0 mph 87 % 0.00 in
04:58 78.4 °F 74.3 °F 29.81 in SSE 3.0 mph 10.0 mph 87 % 0.00 in
04:59 78.4 °F 74.3 °F 29.81 in SE 5.0 mph 10.0 mph 87 % 0.00 in
05:04 78.4 °F 74.3 °F 29.81 in SSE 4.0 mph 10.0 mph 87 % 0.00 in
05:09 78.4 °F 74.3 °F 29.81 in SE 4.0 mph 11.0 mph 87 % 0.00 in
05:14 78.4 °F 74.3 °F 29.81 in SE 6.0 mph 11.0 mph 87 % 0.00 in
05:19 78.4 °F 74.3 °F 29.81 in SE 5.0 mph 12.0 mph 87 % 0.00 in
05:24 78.4 °F 74.3 °F 29.81 in SE 3.0 mph 12.0 mph 87 % 0.00 in
05:29 78.4 °F 74.3 °F 29.80 in South 4.0 mph 12.0 mph 87 % 0.00 in
05:34 78.3 °F 74.1 °F 29.80 in SSE 5.0 mph 10.0 mph 87 % 0.00 in
05:39 78.3 °F 74.1 °F 29.81 in SE 5.0 mph 10.0 mph 87 % 0.00 in
05:44 78.3 °F 74.1 °F 29.81 in SE 4.0 mph 10.0 mph 87 % 0.00 in
05:49 78.3 °F 74.1 °F 29.81 in SE 5.0 mph 9.0 mph 87 % 0.00 in
05:54 78.3 °F 74.1 °F 29.81 in SSE 4.0 mph 9.0 mph 87 % 0.00 in
05:59 78.3 °F 74.1 °F 29.81 in SSE 5.0 mph 9.0 mph 87 % 0.00 in
06:04 78.3 °F 74.1 °F 29.81 in SSE 3.0 mph 9.0 mph 87 % 0.00 in
06:09 78.1 °F 73.9 °F 29.81 in East 1.0 mph 9.0 mph 87 % 0.00 in
06:14 78.1 °F 74.3 °F 29.81 in ESE 4.0 mph 9.0 mph 88 % 0.00 in
06:19 78.1 °F 74.3 °F 29.81 in SE 3.0 mph 6.0 mph 88 % 0.00 in
06:24 77.9 °F 74.1 °F 29.81 in ESE 5.0 mph 9.0 mph 88 % 0.00 in
06:29 77.9 °F 74.1 °F 29.80 in East 5.0 mph 9.0 mph 88 % 0.00 in
06:34 77.9 °F 74.1 °F 29.80 in ESE 3.0 mph 9.0 mph 88 % 0.00 in
06:39 78.1 °F 74.3 °F 29.80 in ESE 4.0 mph 8.0 mph 88 % 0.00 in
06:44 78.1 °F 74.3 °F 29.80 in SSE 6.0 mph 10.0 mph 88 % 0.00 in
06:49 78.1 °F 74.3 °F 29.80 in SE 4.0 mph 10.0 mph 88 % 0.00 in
06:54 78.1 °F 74.3 °F 29.80 in ESE 3.0 mph 10.0 mph 88 % 0.00 in
06:59 78.3 °F 74.5 °F 29.80 in ESE 3.0 mph 10.0 mph 88 % 0.00 in
07:04 78.3 °F 74.5 °F 29.81 in SSE 2.0 mph 10.0 mph 88 % 0.00 in
07:09 78.4 °F 74.7 °F 29.81 in South 5.0 mph 10.0 mph 88 % 0.00 in
07:14 78.4 °F 74.3 °F 29.81 in SE 4.0 mph 10.0 mph 87 % 0.00 in
07:19 78.6 °F 74.8 °F 29.81 in East 2.0 mph 9.0 mph 88 % 0.00 in
07:24 79.0 °F 74.8 °F 29.81 in SSE 3.0 mph 8.0 mph 87 % 0.00 in
07:29 79.2 °F 75.0 °F 29.81 in SSE 3.0 mph 8.0 mph 87 % 0.00 in
07:34 79.2 °F 75.0 °F 29.81 in SE 1.0 mph 9.0 mph 87 % 0.00 in
07:39 79.3 °F 75.2 °F 29.81 in South 2.0 mph 9.0 mph 87 % 0.00 in
07:44 79.5 °F 75.0 °F 29.81 in ESE 6.0 mph 10.0 mph 86 % 0.00 in
07:49 79.7 °F 75.2 °F 29.81 in SE 5.0 mph 11.0 mph 86 % 0.00 in
07:54 79.9 °F 75.4 °F 29.81 in ESE 4.0 mph 11.0 mph 86 % 0.00 in
07:59 80.1 °F 75.2 °F 29.81 in SE 6.0 mph 11.0 mph 85 % 0.00 in
08:04 79.9 °F 75.0 °F 29.81 in South 3.0 mph 13.0 mph 85 % 0.00 in
08:09 80.1 °F 75.2 °F 29.81 in ESE 9.0 mph 13.0 mph 85 % 0.00 in
08:14 80.2 °F 75.0 °F 29.81 in SE 5.0 mph 13.0 mph 84 % 0.00 in
08:19 80.4 °F 75.2 °F 29.81 in East 7.0 mph 13.0 mph 84 % 0.00 in
08:24 80.4 °F 74.8 °F 29.81 in SE 7.0 mph 13.0 mph 83 % 0.00 in
08:26 80.4 °F 74.8 °F 29.81 in ESE 7.0 mph 15.0 mph 83 % 0.00 in
08:30 80.8 °F 74.8 °F 29.81 in South 6.0 mph 15.0 mph 82 % 0.00 in
08:35 81.0 °F 75.0 °F 29.81 in South 5.0 mph 19.0 mph 82 % 0.00 in
08:40 81.3 °F 75.4 °F 29.81 in ESE 7.0 mph 19.0 mph 82 % 0.00 in
08:45 81.7 °F 75.6 °F 29.81 in SE 6.0 mph 19.0 mph 82 % 0.00 in
08:50 82.2 °F 75.0 °F 29.81 in SE 7.0 mph 11.0 mph 79 % 0.00 in
08:55 82.4 °F 74.8 °F 29.81 in South 6.0 mph 13.0 mph 78 % 0.00 in
09:00 82.0 °F 74.5 °F 29.81 in SSW 8.0 mph 14.0 mph 78 % 0.00 in
09:05 82.2 °F 75.0 °F 29.82 in SE 10.0 mph 14.0 mph 79 % 0.00 in
09:10 82.2 °F 74.7 °F 29.82 in SSE 10.0 mph 17.0 mph 78 % 0.00 in
09:15 82.0 °F 74.1 °F 29.82 in ESE 13.0 mph 17.0 mph 77 % 0.00 in
09:20 82.0 °F 74.5 °F 29.82 in SE 8.0 mph 17.0 mph 78 % 0.00 in
09:25 82.6 °F 75.0 °F 29.82 in SE 8.0 mph 16.0 mph 78 % 0.00 in
09:31 82.8 °F 74.8 °F 29.82 in ESE 12.0 mph 16.0 mph 77 % 0.00 in
09:36 83.1 °F 75.2 °F 29.82 in ESE 10.0 mph 15.0 mph 77 % 0.00 in
09:41 83.7 °F 74.8 °F 29.82 in SSE 5.0 mph 22.0 mph 75 % 0.00 in
09:46 84.0 °F 74.8 °F 29.82 in ESE 15.0 mph 22.0 mph 74 % 0.00 in
09:51 84.4 °F 75.6 °F 29.82 in SSE 7.0 mph 22.0 mph 75 % 0.00 in
09:56 84.7 °F 75.2 °F 29.82 in South 8.0 mph 16.0 mph 73 % 0.00 in
10:01 84.6 °F 75.4 °F 29.82 in SSE 5.0 mph 16.0 mph 74 % 0.00 in
10:06 84.7 °F 74.7 °F 29.82 in SSW 6.0 mph 16.0 mph 72 % 0.00 in
10:11 84.7 °F 74.7 °F 29.82 in SE 8.0 mph 18.0 mph 72 % 0.00 in
10:16 84.9 °F 75.2 °F 29.82 in ESE 13.0 mph 18.0 mph 73 % 0.00 in
10:21 85.3 °F 74.3 °F 29.82 in SSE 14.0 mph 18.0 mph 70 % 0.00 in
10:26 85.3 °F 74.3 °F 29.82 in SE 13.0 mph 22.0 mph 70 % 0.00 in
10:31 84.9 °F 74.5 °F 29.82 in South 5.0 mph 22.0 mph 71 % 0.00 in
10:36 84.9 °F 74.8 °F 29.82 in SSE 13.0 mph 22.0 mph 72 % 0.00 in
10:41 84.9 °F 74.5 °F 29.82 in East 14.0 mph 16.0 mph 71 % 0.00 in
10:46 84.6 °F 74.5 °F 29.82 in ESE 6.0 mph 18.0 mph 72 % 0.00 in
10:51 84.6 °F 74.5 °F 29.82 in ESE 6.0 mph 18.0 mph 72 % 0.00 in
10:56 85.3 °F 75.2 °F 29.82 in ESE 13.0 mph 18.0 mph 72 % 0.00 in
11:01 85.3 °F 74.8 °F 29.82 in East 16.0 mph 19.0 mph 71 % 0.00 in
11:06 84.9 °F 74.5 °F 29.82 in SSE 12.0 mph 19.0 mph 71 % 0.00 in
11:11 85.6 °F 74.7 °F 29.82 in ESE 8.0 mph 19.0 mph 70 % 0.00 in
11:16 85.8 °F 74.5 °F 29.82 in SE 13.0 mph 18.0 mph 69 % 0.00 in
11:21 85.5 °F 74.5 °F 29.82 in SSE 10.0 mph 18.0 mph 70 % 0.00 in
11:26 85.8 °F 73.9 °F 29.82 in ESE 7.0 mph 18.0 mph 68 % 0.00 in
11:27 85.8 °F 73.9 °F 29.82 in SSE 8.0 mph 18.0 mph 68 % 0.00 in
11:32 86.4 °F 74.5 °F 29.82 in SSW 7.0 mph 18.0 mph 68 % 0.00 in
11:37 86.7 °F 74.8 °F 29.82 in South 8.0 mph 18.0 mph 68 % 0.00 in
11:42 86.4 °F 74.5 °F 29.82 in SE 9.0 mph 18.0 mph 68 % 0.00 in
11:47 86.4 °F 75.0 °F 29.82 in SE 11.0 mph 17.0 mph 69 % 0.00 in
11:52 87.1 °F 74.8 °F 29.82 in SSW 6.0 mph 17.0 mph 67 % 0.00 in
11:57 87.3 °F 75.0 °F 29.82 in SE 9.0 mph 16.0 mph 67 % 0.00 in
12:02 86.4 °F 74.5 °F 29.82 in ESE 6.0 mph 16.0 mph 68 % 0.00 in
12:07 85.6 °F 74.3 °F 29.82 in SE 10.0 mph 18.0 mph 69 % 0.00 in
12:12 85.8 °F 74.5 °F 29.82 in SE 10.0 mph 18.0 mph 69 % 0.00 in
12:17 85.6 °F 74.3 °F 29.82 in SE 7.0 mph 18.0 mph 69 % 0.00 in
12:22 85.6 °F 74.3 °F 29.82 in SSE 11.0 mph 17.0 mph 69 % 0.00 in
12:27 85.8 °F 73.9 °F 29.82 in SSW 5.0 mph 17.0 mph 68 % 0.00 in
12:32 86.9 °F 74.7 °F 29.82 in SSW 7.0 mph 17.0 mph 67 % 0.00 in
12:37 87.1 °F 74.3 °F 29.82 in South 14.0 mph 17.0 mph 66 % 0.00 in
12:42 87.1 °F 74.8 °F 29.81 in SE 7.0 mph 20.0 mph 67 % 0.00 in
12:47 87.6 °F 74.8 °F 29.81 in ESE 16.0 mph 20.0 mph 66 % 0.00 in
12:52 88.0 °F 74.7 °F 29.81 in ESE 15.0 mph 21.0 mph 65 % 0.00 in
12:57 88.0 °F 74.3 °F 29.81 in South 14.0 mph 21.0 mph 64 % 0.00 in
13:02 87.8 °F 75.0 °F 29.81 in SE 8.0 mph 21.0 mph 66 % 0.00 in
13:07 88.2 °F 74.8 °F 29.81 in SE 15.0 mph 19.0 mph 65 % 0.00 in
13:12 88.5 °F 74.3 °F 29.81 in SE 10.0 mph 20.0 mph 63 % 0.00 in
13:17 88.0 °F 75.2 °F 29.81 in ESE 7.0 mph 21.0 mph 66 % 0.00 in
13:23 88.2 °F 75.4 °F 29.80 in SE 8.0 mph 21.0 mph 66 % 0.00 in
13:28 88.3 °F 75.6 °F 29.80 in ESE 12.0 mph 21.0 mph 66 % 0.00 in
13:38 88.5 °F 75.7 °F 29.80 in ESE 9.0 mph 19.0 mph 66 % 0.00 in
13:43 88.9 °F 75.2 °F 29.80 in SE 9.0 mph 19.0 mph 64 % 0.00 in
13:48 88.5 °F 75.2 °F 29.80 in ESE 17.0 mph 19.0 mph 65 % 0.00 in
13:53 89.2 °F 75.4 °F 29.80 in SE 15.0 mph 18.0 mph 64 % 0.00 in
13:58 89.2 °F 75.4 °F 29.79 in SE 10.0 mph 18.0 mph 64 % 0.00 in
14:03 89.2 °F 75.0 °F 29.79 in SSE 19.0 mph 20.0 mph 63 % 0.00 in
14:08 89.2 °F 75.4 °F 29.79 in SSE 6.0 mph 20.0 mph 64 % 0.00 in
14:13 89.1 °F 74.3 °F 29.79 in ESE 15.0 mph 20.0 mph 62 % 0.00 in
14:18 89.6 °F 75.4 °F 29.79 in SE 10.0 mph 20.0 mph 63 % 0.00 in
14:23 89.4 °F 74.7 °F 29.79 in South 9.0 mph 20.0 mph 62 % 0.00 in
14:28 89.2 °F 75.0 °F 29.78 in SE 10.0 mph 21.0 mph 63 % 0.00 in
14:33 88.9 °F 75.2 °F 29.78 in ESE 7.0 mph 21.0 mph 64 % 0.00 in
14:38 89.1 °F 74.3 °F 29.78 in SE 10.0 mph 21.0 mph 62 % 0.00 in
14:43 89.4 °F 74.1 °F 29.78 in SSE 10.0 mph 21.0 mph 61 % 0.00 in
14:48 89.8 °F 75.0 °F 29.78 in ESE 11.0 mph 20.0 mph 62 % 0.00 in
14:53 89.8 °F 74.5 °F 29.79 in South 14.0 mph 20.0 mph 61 % 0.00 in
14:58 90.3 °F 74.5 °F 29.78 in ESE 9.0 mph 20.0 mph 60 % 0.00 in
15:03 90.0 °F 74.1 °F 29.78 in SE 9.0 mph 18.0 mph 60 % 0.00 in
15:08 90.0 °F 75.2 °F 29.78 in SSE 9.0 mph 18.0 mph 62 % 0.00 in
15:13 89.4 °F 74.7 °F 29.78 in SSE 5.0 mph 17.0 mph 62 % 0.00 in
15:28 90.7 °F 74.3 °F 29.78 in ESE 13.0 mph 19.0 mph 59 % 0.00 in
15:33 90.1 °F 73.9 °F 29.78 in SE 8.0 mph 19.0 mph 59 % 0.00 in
15:38 89.8 °F 74.5 °F 29.78 in ESE 15.0 mph 19.0 mph 61 % 0.00 in
15:43 89.1 °F 73.9 °F 29.78 in SSE 8.0 mph 19.0 mph 61 % 0.00 in
15:48 88.9 °F 74.1 °F 29.78 in SE 13.0 mph 19.0 mph 62 % 0.00 in
15:54 88.5 °F 74.3 °F 29.78 in ESE 8.0 mph 19.0 mph 63 % 0.00 in
15:59 89.1 °F 74.8 °F 29.78 in ESE 7.0 mph 17.0 mph 63 % 0.00 in
16:04 89.4 °F 74.7 °F 29.78 in SE 7.0 mph 17.0 mph 62 % 0.00 in
16:09 88.5 °F 74.3 °F 29.77 in ESE 9.0 mph 15.0 mph 63 % 0.00 in
16:14 88.3 °F 74.7 °F 29.78 in SSE 9.0 mph 17.0 mph 64 % 0.00 in
16:19 88.5 °F 75.7 °F 29.77 in SE 6.0 mph 17.0 mph 66 % 0.00 in
16:24 88.7 °F 76.3 °F 29.77 in ESE 8.0 mph 17.0 mph 67 % 0.00 in
16:29 88.5 °F 76.1 °F 29.77 in SE 6.0 mph 16.0 mph 67 % 0.00 in
16:34 87.6 °F 75.7 °F 29.77 in East 11.0 mph 16.0 mph 68 % 0.00 in
16:38 86.9 °F 75.6 °F 29.77 in East 7.0 mph 16.0 mph 69 % 0.00 in
16:43 86.7 °F 75.7 °F 29.77 in ESE 9.0 mph 16.0 mph 70 % 0.00 in
16:48 87.4 °F 75.9 °F 29.77 in ESE 15.0 mph 17.0 mph 69 % 0.00 in
16:53 87.6 °F 76.1 °F 29.77 in East 9.0 mph 17.0 mph 69 % 0.00 in
16:58 87.6 °F 75.7 °F 29.76 in ESE 9.0 mph 17.0 mph 68 % 0.00 in
17:03 87.4 °F 75.6 °F 29.77 in SW 7.0 mph 18.0 mph 68 % 0.00 in
17:08 87.1 °F 75.2 °F 29.76 in East 8.0 mph 18.0 mph 68 % 0.00 in
17:13 87.1 °F 75.7 °F 29.76 in East 7.0 mph 18.0 mph 69 % 0.00 in
17:18 87.1 °F 75.7 °F 29.76 in ESE 9.0 mph 15.0 mph 69 % 0.00 in
17:23 86.5 °F 75.6 °F 29.77 in SE 8.0 mph 20.0 mph 70 % 0.00 in
17:28 86.2 °F 76.1 °F 29.76 in NE 10.0 mph 21.0 mph 72 % 0.00 in
17:33 86.2 °F 76.1 °F 29.76 in SE 5.0 mph 21.0 mph 72 % 0.00 in
17:38 86.4 °F 75.9 °F 29.76 in ESE 12.0 mph 21.0 mph 71 % 0.00 in
17:43 86.4 °F 76.3 °F 29.76 in ESE 10.0 mph 18.0 mph 72 % 0.00 in
17:48 85.8 °F 75.4 °F 29.76 in ESE 11.0 mph 18.0 mph 71 % 0.00 in
17:53 85.5 °F 75.4 °F 29.76 in SE 8.0 mph 19.0 mph 72 % 0.00 in
17:58 85.3 °F 76.1 °F 29.76 in SSE 7.0 mph 19.0 mph 74 % 0.00 in
18:03 85.1 °F 76.3 °F 29.76 in SE 9.0 mph 19.0 mph 75 % 0.00 in
18:08 84.9 °F 75.7 °F 29.77 in SSE 8.0 mph 15.0 mph 74 % 0.00 in
18:13 84.9 °F 75.7 °F 29.77 in SE 5.0 mph 14.0 mph 74 % 0.00 in
18:18 84.7 °F 75.6 °F 29.77 in SSE 3.0 mph 12.0 mph 74 % 0.00 in
18:23 84.6 °F 75.7 °F 29.77 in South 4.0 mph 12.0 mph 75 % 0.00 in
18:28 84.4 °F 75.6 °F 29.77 in ESE 7.0 mph 16.0 mph 75 % 0.00 in
18:33 84.2 °F 75.7 °F 29.77 in SE 7.0 mph 16.0 mph 76 % 0.00 in
18:38 84.2 °F 75.7 °F 29.77 in SE 7.0 mph 16.0 mph 76 % 0.00 in
18:43 84.4 °F 75.6 °F 29.77 in ESE 6.0 mph 13.0 mph 75 % 0.00 in
18:48 84.0 °F 75.2 °F 29.77 in SSE 5.0 mph 13.0 mph 75 % 0.00 in
18:53 83.8 °F 75.9 °F 29.77 in SSE 4.0 mph 14.0 mph 77 % 0.00 in
18:58 84.0 °F 76.1 °F 29.77 in ESE 6.0 mph 14.0 mph 77 % 0.00 in
19:03 83.8 °F 75.9 °F 29.77 in ESE 3.0 mph 14.0 mph 77 % 0.00 in
19:08 83.7 °F 75.7 °F 29.77 in East 7.0 mph 14.0 mph 77 % 0.00 in
19:13 83.5 °F 75.9 °F 29.77 in ESE 4.0 mph 17.0 mph 78 % 0.00 in
19:18 82.9 °F 75.7 °F 29.77 in SE 4.0 mph 17.0 mph 79 % 0.00 in
19:23 82.6 °F 75.4 °F 29.78 in ESE 4.0 mph 17.0 mph 79 % 0.00 in
19:28 82.2 °F 75.4 °F 29.78 in ENE 6.0 mph 13.0 mph 80 % 0.00 in
19:34 82.0 °F 75.2 °F 29.77 in ESE 6.0 mph 14.0 mph 80 % 0.00 in
19:39 81.9 °F 75.4 °F 29.77 in East 6.0 mph 14.0 mph 81 % 0.00 in
19:44 81.7 °F 75.2 °F 29.77 in SE 8.0 mph 14.0 mph 81 % 0.00 in
19:49 81.7 °F 75.2 °F 29.77 in SSE 5.0 mph 13.0 mph 81 % 0.00 in
19:54 81.7 °F 75.6 °F 29.77 in SSE 2.0 mph 13.0 mph 82 % 0.00 in
19:59 81.3 °F 75.4 °F 29.78 in ESE 8.0 mph 13.0 mph 82 % 0.00 in
20:04 81.3 °F 75.7 °F 29.78 in SE 6.0 mph 13.0 mph 83 % 0.00 in
20:09 81.1 °F 75.6 °F 29.77 in SE 4.0 mph 11.0 mph 83 % 0.00 in
20:14 81.1 °F 75.6 °F 29.77 in ESE 1.0 mph 11.0 mph 83 % 0.00 in
20:19 81.0 °F 75.7 °F 29.78 in SSE 4.0 mph 11.0 mph 84 % 0.00 in
20:24 81.0 °F 75.7 °F 29.78 in SSE 7.0 mph 9.0 mph 84 % 0.00 in
20:29 81.0 °F 75.7 °F 29.78 in East 4.0 mph 11.0 mph 84 % 0.00 in
20:34 81.0 °F 75.7 °F 29.78 in ESE 3.0 mph 13.0 mph 84 % 0.00 in
20:39 81.0 °F 75.7 °F 29.78 in SE 2.0 mph 13.0 mph 84 % 0.00 in
20:44 81.0 °F 75.7 °F 29.78 in ESE 2.0 mph 13.0 mph 84 % 0.00 in
20:49 81.0 °F 75.7 °F 29.79 in SE 2.0 mph 12.0 mph 84 % 0.00 in
20:54 81.0 °F 75.7 °F 29.78 in SE 3.0 mph 11.0 mph 84 % 0.00 in
20:59 80.8 °F 75.9 °F 29.79 in ESE 3.0 mph 11.0 mph 85 % 0.00 in
21:04 80.8 °F 75.9 °F 29.78 in ESE 5.0 mph 9.0 mph 85 % 0.00 in
21:09 80.6 °F 75.7 °F 29.79 in SE 2.0 mph 11.0 mph 85 % 0.00 in
21:14 80.4 °F 75.9 °F 29.79 in SSE 5.0 mph 11.0 mph 86 % 0.00 in
21:19 80.4 °F 75.9 °F 29.79 in SE 6.0 mph 11.0 mph 86 % 0.00 in
21:24 80.2 °F 75.7 °F 29.79 in ESE 1.0 mph 9.0 mph 86 % 0.00 in
21:29 80.2 °F 75.7 °F 29.79 in East 2.0 mph 10.0 mph 86 % 0.00 in
21:34 80.2 °F 75.7 °F 29.79 in SE 7.0 mph 10.0 mph 86 % 0.00 in
21:39 80.2 °F 75.7 °F 29.79 in SE 3.0 mph 10.0 mph 86 % 0.00 in
21:44 80.2 °F 75.7 °F 29.80 in South 4.0 mph 13.0 mph 86 % 0.00 in
21:49 80.2 °F 75.7 °F 29.80 in SSE 6.0 mph 13.0 mph 86 % 0.00 in
21:54 80.2 °F 75.7 °F 29.80 in SE 5.0 mph 14.0 mph 86 % 0.00 in
21:59 80.2 °F 75.7 °F 29.80 in South 7.0 mph 14.0 mph 86 % 0.00 in
22:04 80.2 °F 75.7 °F 29.80 in SE 3.0 mph 14.0 mph 86 % 0.00 in
22:09 80.2 °F 75.4 °F 29.80 in SSE 8.0 mph 15.0 mph 85 % 0.00 in
22:14 80.2 °F 75.4 °F 29.80 in ESE 7.0 mph 15.0 mph 85 % 0.00 in
22:19 80.1 °F 75.2 °F 29.80 in SE 3.0 mph 15.0 mph 85 % 0.00 in
22:24 80.1 °F 75.6 °F 29.80 in SSE 6.0 mph 13.0 mph 86 % 0.00 in
22:29 80.1 °F 75.6 °F 29.81 in SE 5.0 mph 11.0 mph 86 % 0.00 in
22:34 80.1 °F 75.6 °F 29.80 in SE 3.0 mph 10.0 mph 86 % 0.00 in
22:39 79.9 °F 75.4 °F 29.81 in ESE 9.0 mph 11.0 mph 86 % 0.00 in
22:44 79.9 °F 75.4 °F 29.81 in ESE 8.0 mph 11.0 mph 86 % 0.00 in
22:49 79.9 °F 75.4 °F 29.81 in SE 5.0 mph 12.0 mph 86 % 0.00 in
22:54 79.9 °F 75.4 °F 29.81 in ESE 1.0 mph 12.0 mph 86 % 0.00 in
22:59 79.9 °F 75.4 °F 29.81 in SSE 8.0 mph 12.0 mph 86 % 0.00 in
23:04 80.1 °F 75.6 °F 29.81 in SE 7.0 mph 12.0 mph 86 % 0.00 in
23:09 80.1 °F 75.2 °F 29.81 in ESE 3.0 mph 12.0 mph 85 % 0.00 in
23:14 80.1 °F 75.2 °F 29.81 in SE 5.0 mph 12.0 mph 85 % 0.00 in
23:19 80.1 °F 75.2 °F 29.81 in SE 3.0 mph 13.0 mph 85 % 0.00 in
23:24 80.1 °F 75.2 °F 29.81 in SE 7.0 mph 13.0 mph 85 % 0.00 in
23:29 80.1 °F 75.2 °F 29.81 in SSE 4.0 mph 13.0 mph 85 % 0.00 in
23:34 80.1 °F 75.2 °F 29.81 in SSE 6.0 mph 11.0 mph 85 % 0.00 in
23:40 80.2 °F 75.4 °F 29.81 in ESE 3.0 mph 11.0 mph 85 % 0.00 in
23:44 80.2 °F 75.4 °F 29.81 in South 6.0 mph 10.0 mph 85 % 0.00 in
23:50 80.2 °F 75.4 °F 29.81 in SE 3.0 mph 9.0 mph 85 % 0.00 in
23:54 80.2 °F 75.4 °F 29.81 in SSE 4.0 mph 9.0 mph 85 % 0.00 in
23:59 80.2 °F 75.4 °F 29.81 in South 10.0 mph 10.0 mph 85 % 0.00 in
Spring, Texas: Villages of Bridgestone
Compliments of Weather Underground - 2.75 mb

Script developed by  Jim McMurry - jmcmurry@mwt.net Adapted for the template by  Wim van der Kuil - Leuven-Template.eu

You find our weather info also at:

UK Metoffice

WeatherCloud

Weather Underground

Mid-South Weather Network

AWEKAS

Citizen Weather Observer Program (CWOP)

HAMweather, WeatherForYou, PWS Weather

Equipment we use:

Weather-station
Davis Vantage Vue

Weather-program
Meteohub

Weather-server
Debian 7.9 x86 (Guest)

Provider
DreamHost

Davis Vantage Vue

Meteohub

Debian 7.9 x86 (Guest)

DreamHost